Airfield :
LOGIN :

Register | Disclaimer

   EN    FR    IT 

 










Legend :    VFR   Marginal VFR   IFR   Intensive IFR   Very Intensive IFR
Visi :
Ceiling :
>= 8 km
>= 3000ft
5 to 8 km
1000 to 3000 ft
1500m to 5 km
500 to 1000 ft
800 to 1500m
200 to 500 ft
< 800m
< 200 ft
Symbols :   Thunderstorms  Fog  Heavy snow  Heavy precipitations  Wind > 20 kt
SIGMETs :     Misc.  Thunderstorms  Icing  Turbulence  Mountain Waves  Volcanic Ashes






- Airport Elevation : 529 ft
- IATA code : CHR


LFLX - Chateauroux

CURRENT METAR :
  • 270930Z AUTO 24011KT 1200 R21/1800N -DZ BR OVC003 06/06 Q1018 TEMPO VV///

EXPIRED METARs :
  • 270900Z AUTO 24009KT 1500 1400 R21/1900D BR OVC002 06/06 Q1017 NOSIG
  • 270830Z AUTO 23010KT 1500 BR OVC003 05/05 Q1017 NOSIG
  • 270800Z AUTO 24009KT 1700 BR OVC002 05/05 Q1017 TEMPO 0900 FG VV///
  • 270730Z AUTO 24010KT 2600 BR OVC002 05/04 Q1017 TEMPO 0900 FG VV///
  • 270700Z AUTO 23010KT 2900 BR OVC002 04/04 Q1016 TEMPO 0900 FG VV///
  • 270630Z AUTO 24007KT 4000 BR OVC003 04/04 Q1016 TEMPO 0900 FG VV///

TAF AMD TAF LFLX
Valid from the 27 at 09:00 until the 28 at 12:00 UTC


270911Z 2709/2812 24006KT 1500 BR BKN003
PROB30
TEMPO 2709/2712 0800 FG VV///
PROB40
TEMPO 2713/2717 6000 BKN008
BECMG 2717/2719 -RA
TEMPO 2719/2812 2500 RADZ BKN004
TEMPO 2803/2812 24015G25KT



MET'MAP, your aeronautical weather chart ! - Copyright ORBIFLY December 2007 - Disclaimer

ORBIFLY MET'MAP TEAM :

Programming & Development : Alexandra Zaïnal
Concept & original design : Baudouin d'Aumeries
Assistance for programming : Marc-Olivier Méhu
Technical & hardware support : Manuel Goepfert

Contact : metmap@orbifly.com




SOURCES & CREDITS :

   NOAA